createdAt,value
2018-08-17T00:00:07.956Z,1007.74
2018-08-17T00:01:06.054Z,1007.75
2018-08-17T00:02:06.052Z,1007.76
2018-08-17T00:03:06.068Z,1007.74
2018-08-17T00:04:06.051Z,1007.77
2018-08-17T00:05:06.056Z,1007.73
2018-08-17T00:06:10.949Z,1007.71
2018-08-17T00:07:07.950Z,1007.73
2018-08-17T00:08:07.957Z,1007.72
2018-08-17T00:10:38.740Z,1007.71
2018-08-17T00:11:38.401Z,1007.71
2018-08-17T00:13:33.102Z,1007.70
2018-08-17T00:14:32.101Z,1007.71
2018-08-17T00:15:32.041Z,1007.74
2018-08-17T00:16:32.029Z,1007.71
2018-08-17T00:17:32.045Z,1007.69
2018-08-17T00:18:32.047Z,1007.74
2018-08-17T00:19:32.024Z,1007.68
2018-08-17T00:20:32.023Z,1007.66
2018-08-17T00:21:32.020Z,1007.66
2018-08-17T00:22:32.026Z,1007.63
2018-08-17T00:23:32.022Z,1007.59
2018-08-17T00:24:32.016Z,1007.58
2018-08-17T00:25:32.016Z,1007.56
2018-08-17T00:26:32.019Z,1007.56
2018-08-17T00:27:32.012Z,1007.54
2018-08-17T00:28:32.076Z,1007.54
2018-08-17T00:29:32.016Z,1007.52
2018-08-17T00:30:32.006Z,1007.54
2018-08-17T00:31:32.073Z,1007.55
2018-08-17T00:32:31.996Z,1007.55
2018-08-17T00:33:32.000Z,1007.56
2018-08-17T00:34:31.992Z,1007.54
2018-08-17T00:35:32.020Z,1007.56
2018-08-17T00:36:31.988Z,1007.57
2018-08-17T00:37:31.997Z,1007.55
2018-08-17T00:38:32.869Z,1007.55
2018-08-17T00:39:31.976Z,1007.56
2018-08-17T00:40:31.979Z,1007.60
2018-08-17T00:41:31.977Z,1007.56
2018-08-17T00:42:31.977Z,1007.60
2018-08-17T00:43:31.966Z,1007.62
2018-08-17T00:44:31.967Z,1007.58
2018-08-17T00:45:31.968Z,1007.61
2018-08-17T00:46:31.987Z,1007.62
2018-08-17T00:47:31.957Z,1007.61
2018-08-17T00:48:31.961Z,1007.61
2018-08-17T00:49:31.981Z,1007.63
2018-08-17T00:50:31.948Z,1007.65
2018-08-17T00:51:31.955Z,1007.64
2018-08-17T00:52:31.966Z,1007.66
2018-08-17T00:53:31.949Z,1007.66
2018-08-17T00:54:31.942Z,1007.71
2018-08-17T00:55:31.974Z,1007.67
2018-08-17T00:56:31.943Z,1007.67
2018-08-17T00:57:31.933Z,1007.66
2018-08-17T00:58:31.932Z,1007.64
2018-08-17T00:59:31.934Z,1007.66
2018-08-17T01:00:31.950Z,1007.68
2018-08-17T01:01:31.937Z,1007.67
2018-08-17T01:02:31.926Z,1007.63
2018-08-17T01:03:31.937Z,1007.66
2018-08-17T01:04:31.926Z,1007.66
2018-08-17T01:05:31.914Z,1007.67
2018-08-17T01:06:31.921Z,1007.67
2018-08-17T01:07:31.914Z,1007.67
2018-08-17T01:08:46.871Z,1007.67
2018-08-17T01:09:31.948Z,1007.67
2018-08-17T01:10:31.930Z,1007.67
2018-08-17T01:11:31.919Z,1007.70
2018-08-17T01:12:33.867Z,1007.75
2018-08-17T01:13:31.898Z,1007.76
2018-08-17T01:14:31.919Z,1007.76
2018-08-17T01:15:31.905Z,1007.78
2018-08-17T01:16:31.885Z,1007.79
2018-08-17T01:17:31.884Z,1007.83
2018-08-17T01:18:31.887Z,1007.81
2018-08-17T01:19:31.884Z,1007.84
2018-08-17T01:20:31.887Z,1007.87
2018-08-17T01:21:31.887Z,1007.84
2018-08-17T01:22:31.874Z,1007.85
2018-08-17T01:23:31.875Z,1007.87
2018-08-17T01:24:31.869Z,1007.87
2018-08-17T01:25:31.869Z,1007.87
2018-08-17T01:26:31.870Z,1007.92
2018-08-17T01:27:31.867Z,1007.90
2018-08-17T01:28:31.865Z,1007.90
2018-08-17T01:29:31.857Z,1007.90
2018-08-17T01:30:31.859Z,1007.90
2018-08-17T01:31:31.858Z,1007.93
2018-08-17T01:32:31.850Z,1007.92
2018-08-17T01:33:31.862Z,1007.95
2018-08-17T01:34:31.845Z,1007.96
2018-08-17T01:35:31.837Z,1007.96
2018-08-17T01:36:31.855Z,1007.98
2018-08-17T01:37:31.841Z,1008.00
2018-08-17T01:38:31.842Z,1008.01
2018-08-17T01:39:31.833Z,1008.00
2018-08-17T01:40:31.840Z,1008.06
2018-08-17T01:41:31.850Z,1008.09
2018-08-17T01:42:31.853Z,1008.11
2018-08-17T01:43:31.833Z,1008.11
2018-08-17T01:44:31.833Z,1008.12
2018-08-17T01:45:31.816Z,1008.19
2018-08-17T01:46:31.813Z,1008.18
2018-08-17T01:47:32.396Z,1008.16
2018-08-17T01:48:31.810Z,1008.19
2018-08-17T01:49:31.816Z,1008.18
2018-08-17T01:50:31.804Z,1008.20
2018-08-17T01:51:31.801Z,1008.20
2018-08-17T01:52:31.808Z,1008.24
2018-08-17T01:53:31.797Z,1008.27
2018-08-17T01:54:31.797Z,1008.27
2018-08-17T01:55:31.800Z,1008.29
2018-08-17T01:56:31.797Z,1008.30
2018-08-17T01:57:31.795Z,1008.32
2018-08-17T01:58:31.787Z,1008.39
2018-08-17T01:59:31.790Z,1008.35
2018-08-17T02:00:31.799Z,1008.35
2018-08-17T02:01:31.781Z,1008.39
2018-08-17T02:02:31.778Z,1008.39
2018-08-17T02:03:31.776Z,1008.45
2018-08-17T02:04:31.777Z,1008.54
2018-08-17T02:05:31.774Z,1008.62
2018-08-17T02:06:31.779Z,1008.71
2018-08-17T02:07:31.766Z,1008.70
2018-08-17T02:08:31.762Z,1008.66
2018-08-17T02:09:32.406Z,1008.64
2018-08-17T02:10:31.754Z,1008.61
2018-08-17T02:11:31.765Z,1008.68
2018-08-17T02:12:31.751Z,1008.76
2018-08-17T02:13:31.747Z,1008.80
2018-08-17T02:14:31.757Z,1008.83
2018-08-17T02:15:31.743Z,1008.83
2018-08-17T02:16:31.750Z,1008.83
2018-08-17T02:17:31.741Z,1008.82
2018-08-17T02:18:31.747Z,1008.82
2018-08-17T02:19:31.743Z,1008.87
2018-08-17T02:20:31.741Z,1008.89
2018-08-17T02:21:31.730Z,1008.92
2018-08-17T02:22:31.751Z,1008.89
2018-08-17T02:23:31.726Z,1008.87
2018-08-17T02:24:31.822Z,1008.86
2018-08-17T02:25:31.724Z,1008.90
2018-08-17T02:26:31.725Z,1008.93
2018-08-17T02:27:31.738Z,1008.93
2018-08-17T02:28:31.722Z,1008.90
2018-08-17T02:29:31.719Z,1008.94
2018-08-17T02:30:31.710Z,1008.88
2018-08-17T02:31:31.706Z,1008.86
2018-08-17T02:32:31.702Z,1008.85
2018-08-17T02:33:31.704Z,1008.86
2018-08-17T02:34:31.703Z,1008.84
2018-08-17T02:35:31.718Z,1008.86
2018-08-17T02:36:31.691Z,1008.91
2018-08-17T02:37:31.694Z,1008.92
2018-08-17T02:38:31.686Z,1008.92
2018-08-17T02:39:31.688Z,1008.89
2018-08-17T02:40:31.677Z,1008.89
2018-08-17T02:41:31.678Z,1008.92
2018-08-17T02:42:31.674Z,1008.89
2018-08-17T02:43:31.672Z,1008.88
2018-08-17T02:44:31.687Z,1008.87
2018-08-17T02:45:31.667Z,1008.84
2018-08-17T02:46:31.668Z,1008.86
2018-08-17T02:47:31.662Z,1008.90
2018-08-17T02:48:31.659Z,1008.92
2018-08-17T02:49:31.660Z,1008.91
2018-08-17T02:50:31.648Z,1008.95
2018-08-17T02:51:31.651Z,1008.94
2018-08-17T02:52:31.643Z,1008.96
2018-08-17T02:53:31.653Z,1008.99
2018-08-17T02:54:31.648Z,1008.98
2018-08-17T02:55:31.634Z,1009.01
2018-08-17T02:56:31.635Z,1009.01
2018-08-17T02:57:31.631Z,1009.05
2018-08-17T02:58:31.632Z,1009.10
2018-08-17T02:59:31.719Z,1009.13
2018-08-17T03:00:31.624Z,1009.18
2018-08-17T03:01:31.629Z,1009.14
2018-08-17T03:02:31.643Z,1009.15
2018-08-17T03:03:31.630Z,1009.14
2018-08-17T03:04:31.614Z,1009.09
2018-08-17T03:05:31.633Z,1009.07
2018-08-17T03:06:31.605Z,1009.08
2018-08-17T03:07:31.661Z,1009.09
2018-08-17T03:08:32.441Z,1009.07
2018-08-17T03:09:31.614Z,1009.09
2018-08-17T03:10:31.621Z,1009.06
2018-08-17T03:11:31.598Z,1009.06
2018-08-17T03:12:31.603Z,1009.05
2018-08-17T03:13:31.610Z,1009.12
2018-08-17T03:14:31.583Z,1009.08
2018-08-17T03:15:31.598Z,1009.12
2018-08-17T03:16:31.591Z,1009.10
2018-08-17T03:17:31.575Z,1009.12
2018-08-17T03:18:31.620Z,1009.15
2018-08-17T03:19:31.569Z,1009.12
2018-08-17T03:20:31.574Z,1009.10
2018-08-17T03:21:31.559Z,1009.11
2018-08-17T03:22:31.557Z,1009.07
2018-08-17T03:23:31.573Z,1009.11
2018-08-17T03:24:31.581Z,1009.09
2018-08-17T03:25:31.580Z,1009.08
2018-08-17T03:26:31.565Z,1009.05
2018-08-17T03:27:31.570Z,1009.07
2018-08-17T03:28:31.537Z,1009.08
2018-08-17T03:29:31.597Z,1009.08
2018-08-17T03:30:31.541Z,1009.11
2018-08-17T03:31:31.533Z,1009.11
2018-08-17T03:32:31.541Z,1009.08
2018-08-17T03:33:31.529Z,1009.03
2018-08-17T03:34:31.543Z,1009.01
2018-08-17T03:35:31.543Z,1009.00
2018-08-17T03:36:31.518Z,1008.96
2018-08-17T03:37:31.549Z,1008.99
2018-08-17T03:38:31.508Z,1009.05
2018-08-17T03:39:31.526Z,1009.12
2018-08-17T03:40:31.515Z,1009.10
2018-08-17T03:41:31.498Z,1009.13
2018-08-17T03:42:31.501Z,1009.10
2018-08-17T03:43:31.492Z,1009.11
2018-08-17T03:44:31.495Z,1009.09
2018-08-17T03:45:31.497Z,1009.08
2018-08-17T03:46:31.496Z,1009.08
2018-08-17T03:47:31.487Z,1009.11
2018-08-17T03:48:31.478Z,1009.12
2018-08-17T03:49:31.482Z,1009.08
2018-08-17T03:50:31.478Z,1009.10
2018-08-17T03:51:31.477Z,1009.10
2018-08-17T03:52:31.476Z,1009.04
2018-08-17T03:53:31.484Z,1009.02
2018-08-17T03:54:31.470Z,1008.97
2018-08-17T03:55:31.469Z,1008.93
2018-08-17T03:56:31.460Z,1009.01
2018-08-17T03:57:31.470Z,1009.02
2018-08-17T03:58:31.461Z,1009.05
2018-08-17T03:59:31.447Z,1009.09
2018-08-17T04:00:31.446Z,1009.09
2018-08-17T04:01:31.487Z,1009.05
2018-08-17T04:02:31.441Z,1009.01
2018-08-17T04:03:31.446Z,1008.95
2018-08-17T04:04:31.448Z,1009.02
2018-08-17T04:05:31.443Z,1009.04
2018-08-17T04:06:31.449Z,1009.09
2018-08-17T04:07:31.463Z,1009.11
2018-08-17T04:08:31.435Z,1009.12
2018-08-17T04:09:31.416Z,1009.10
2018-08-17T04:10:31.430Z,1009.06
2018-08-17T04:11:32.393Z,1009.08
2018-08-17T04:12:31.419Z,1009.10
2018-08-17T04:13:31.409Z,1009.13
2018-08-17T04:14:31.436Z,1009.18
2018-08-17T04:15:31.462Z,1009.25
2018-08-17T04:16:31.405Z,1009.22
2018-08-17T04:17:31.401Z,1009.23
2018-08-17T04:18:31.401Z,1009.22
2018-08-17T04:19:31.408Z,1009.25
2018-08-17T04:20:31.388Z,1009.25
2018-08-17T04:21:31.392Z,1009.26
2018-08-17T04:22:31.382Z,1009.28
2018-08-17T04:23:31.378Z,1009.28
2018-08-17T04:24:31.377Z,1009.32
2018-08-17T04:25:31.371Z,1009.30
2018-08-17T04:26:31.369Z,1009.31
2018-08-17T04:27:31.387Z,1009.32
2018-08-17T04:28:31.377Z,1009.35
2018-08-17T04:29:31.379Z,1009.39
2018-08-17T04:30:31.359Z,1009.43
2018-08-17T04:31:31.352Z,1009.43
2018-08-17T04:32:31.353Z,1009.44
2018-08-17T04:33:31.345Z,1009.50
2018-08-17T04:34:31.351Z,1009.57
2018-08-17T04:35:31.413Z,1009.63
2018-08-17T04:36:31.338Z,1009.59
2018-08-17T04:37:31.355Z,1009.59
2018-08-17T04:38:31.336Z,1009.61
2018-08-17T04:39:31.342Z,1009.62
2018-08-17T04:40:31.337Z,1009.58
2018-08-17T04:41:31.346Z,1009.54
2018-08-17T04:42:31.323Z,1009.56
2018-08-17T04:43:31.324Z,1009.59
2018-08-17T04:44:31.319Z,1009.65
2018-08-17T04:45:31.315Z,1009.70
2018-08-17T04:46:31.328Z,1009.79
2018-08-17T04:47:31.312Z,1009.81
2018-08-17T04:48:31.327Z,1009.88
2018-08-17T04:49:31.334Z,1009.92
2018-08-17T04:50:31.320Z,1009.93
2018-08-17T04:51:31.316Z,1009.93
2018-08-17T04:52:31.293Z,1009.93
2018-08-17T04:53:31.296Z,1009.90
2018-08-17T04:54:31.294Z,1009.86
2018-08-17T04:55:31.296Z,1009.83
2018-08-17T04:56:31.300Z,1009.73
2018-08-17T04:57:31.299Z,1009.66
2018-08-17T04:58:31.277Z,1009.62
2018-08-17T04:59:31.281Z,1009.67
2018-08-17T05:00:31.288Z,1009.59
2018-08-17T05:01:31.288Z,1009.59
2018-08-17T05:02:31.273Z,1009.63
2018-08-17T05:03:31.393Z,1009.61
2018-08-17T05:04:31.261Z,1009.61
2018-08-17T05:05:31.322Z,1009.58
2018-08-17T05:06:31.267Z,1009.57
2018-08-17T05:07:31.285Z,1009.51
2018-08-17T05:08:31.250Z,1009.49
2018-08-17T05:09:34.023Z,1009.42
2018-08-17T05:10:31.257Z,1009.40
2018-08-17T05:11:31.287Z,1009.42
2018-08-17T05:12:31.249Z,1009.42
2018-08-17T05:13:31.267Z,1009.47
2018-08-17T05:14:31.235Z,1009.48
2018-08-17T05:15:31.238Z,1009.55
2018-08-17T05:16:31.233Z,1009.59
2018-08-17T05:17:31.228Z,1009.67
2018-08-17T05:18:31.251Z,1009.69
2018-08-17T05:19:31.228Z,1009.70
2018-08-17T05:20:31.223Z,1009.71
2018-08-17T05:21:31.229Z,1009.70
2018-08-17T05:22:31.223Z,1009.73
2018-08-17T05:23:31.249Z,1009.72
2018-08-17T05:24:31.246Z,1009.72
2018-08-17T05:25:31.211Z,1009.71
2018-08-17T05:26:31.219Z,1009.66
2018-08-17T05:27:31.209Z,1009.65
2018-08-17T05:28:31.197Z,1009.67
2018-08-17T05:29:31.198Z,1009.65
2018-08-17T05:30:31.217Z,1009.67
2018-08-17T05:31:31.197Z,1009.67
2018-08-17T05:32:31.194Z,1009.65
2018-08-17T05:33:31.205Z,1009.65
2018-08-17T05:34:31.233Z,1009.68
2018-08-17T05:35:31.182Z,1009.71
2018-08-17T05:36:31.186Z,1009.71
2018-08-17T05:37:31.181Z,1009.73
2018-08-17T05:38:31.185Z,1009.71
2018-08-17T05:39:31.172Z,1009.73
2018-08-17T05:40:31.196Z,1009.74
2018-08-17T05:41:31.167Z,1009.78
2018-08-17T05:42:31.160Z,1009.78
2018-08-17T05:43:31.161Z,1009.79
2018-08-17T05:44:31.160Z,1009.83
2018-08-17T05:45:31.174Z,1009.79
2018-08-17T05:46:31.158Z,1009.84
2018-08-17T05:47:31.156Z,1009.79
2018-08-17T05:48:31.151Z,1009.82
2018-08-17T05:49:31.151Z,1009.80
2018-08-17T05:50:31.148Z,1009.81
2018-08-17T05:51:31.140Z,1009.83
2018-08-17T05:52:31.136Z,1009.82
2018-08-17T05:53:31.137Z,1009.84
2018-08-17T05:54:31.135Z,1009.86
2018-08-17T05:55:31.135Z,1009.86
2018-08-17T05:56:31.140Z,1009.95
2018-08-17T05:57:31.136Z,1009.95
2018-08-17T05:58:31.126Z,1010.01
2018-08-17T05:59:31.122Z,1009.99
2018-08-17T06:00:31.124Z,1010.02
2018-08-17T06:01:31.143Z,1010.02
2018-08-17T06:02:31.120Z,1010.07
2018-08-17T06:03:31.114Z,1010.09
2018-08-17T06:04:31.109Z,1010.11
2018-08-17T06:05:31.108Z,1010.17
2018-08-17T06:06:31.104Z,1010.12
2018-08-17T06:07:31.114Z,1010.14
2018-08-17T06:08:31.120Z,1010.17
2018-08-17T06:09:31.097Z,1010.17
2018-08-17T06:10:31.097Z,1010.10
2018-08-17T06:11:31.198Z,1010.06
2018-08-17T06:12:31.098Z,1009.98
2018-08-17T06:13:31.090Z,1009.99
2018-08-17T06:14:31.089Z,1009.98
2018-08-17T06:15:31.164Z,1010.04
2018-08-17T06:16:31.084Z,1010.06
2018-08-17T06:17:31.083Z,1010.08
2018-08-17T06:18:31.084Z,1010.16
2018-08-17T06:19:31.088Z,1010.22
2018-08-17T06:20:31.074Z,1010.30
2018-08-17T06:21:31.074Z,1010.34
2018-08-17T06:22:31.107Z,1010.37
2018-08-17T06:23:31.067Z,1010.48
2018-08-17T06:24:31.073Z,1010.54
2018-08-17T06:25:31.071Z,1010.58
2018-08-17T06:26:31.059Z,1010.66
2018-08-17T06:27:31.060Z,1010.68
2018-08-17T06:28:31.096Z,1010.71
2018-08-17T06:29:31.080Z,1010.79
2018-08-17T06:30:31.080Z,1010.79
2018-08-17T06:31:31.068Z,1010.83
2018-08-17T06:32:31.043Z,1010.87
2018-08-17T06:33:31.041Z,1010.89
2018-08-17T06:34:31.053Z,1010.96
2018-08-17T06:35:31.036Z,1010.91
2018-08-17T06:36:31.039Z,1010.90
2018-08-17T06:37:31.031Z,1010.83
2018-08-17T06:38:31.029Z,1010.77
2018-08-17T06:39:31.034Z,1010.78
2018-08-17T06:40:31.025Z,1010.75
2018-08-17T06:41:31.022Z,1010.74
2018-08-17T06:42:31.016Z,1010.79
2018-08-17T06:43:31.014Z,1010.80
2018-08-17T06:44:31.018Z,1010.78
2018-08-17T06:45:31.013Z,1010.79
2018-08-17T06:46:31.006Z,1010.83
2018-08-17T06:47:31.002Z,1010.87
2018-08-17T06:48:30.997Z,1010.87
2018-08-17T06:49:31.000Z,1010.85
2018-08-17T06:50:31.022Z,1010.89
2018-08-17T06:51:30.992Z,1010.86
2018-08-17T06:52:31.049Z,1010.85
2018-08-17T06:53:30.981Z,1010.82
2018-08-17T06:54:30.978Z,1010.78
2018-08-17T06:55:30.976Z,1010.75
2018-08-17T06:56:30.975Z,1010.75
2018-08-17T06:57:30.983Z,1010.72
2018-08-17T06:58:30.965Z,1010.67
2018-08-17T06:59:30.964Z,1010.65
2018-08-17T07:00:30.973Z,1010.63
2018-08-17T07:01:30.958Z,1010.58
2018-08-17T07:02:31.040Z,1010.58
2018-08-17T07:03:30.957Z,1010.52
2018-08-17T07:04:30.943Z,1010.48
2018-08-17T07:05:30.949Z,1010.41
2018-08-17T07:06:30.951Z,1010.34
2018-08-17T07:07:30.933Z,1010.31
2018-08-17T07:08:30.930Z,1010.33
2018-08-17T07:09:30.953Z,1010.39
2018-08-17T07:10:30.927Z,1010.44
2018-08-17T07:11:30.935Z,1010.49
2018-08-17T07:12:30.917Z,1010.52
2018-08-17T07:13:30.906Z,1010.53
2018-08-17T07:14:30.906Z,1010.56
2018-08-17T07:15:30.901Z,1010.62
2018-08-17T07:16:30.930Z,1010.66
2018-08-17T07:17:30.919Z,1010.72
2018-08-17T07:18:30.896Z,1010.78
2018-08-17T07:19:30.890Z,1010.83
2018-08-17T07:20:31.572Z,1010.89
2018-08-17T07:21:30.956Z,1010.96
2018-08-17T07:22:30.870Z,1011.00
2018-08-17T07:23:30.866Z,1011.04
2018-08-17T07:24:30.861Z,1011.01
2018-08-17T07:25:30.859Z,1011.03
2018-08-17T07:26:30.862Z,1011.08
2018-08-17T07:27:30.867Z,1011.11
2018-08-17T07:28:30.851Z,1011.16
2018-08-17T07:29:30.860Z,1011.20
2018-08-17T07:30:30.853Z,1011.25
2018-08-17T07:31:30.845Z,1011.32
2018-08-17T07:32:30.835Z,1011.36
2018-08-17T07:33:30.841Z,1011.40
2018-08-17T07:34:30.828Z,1011.35
2018-08-17T07:35:30.859Z,1011.42
2018-08-17T07:36:30.831Z,1011.41
2018-08-17T07:37:30.839Z,1011.37
2018-08-17T07:38:30.826Z,1011.35
2018-08-17T07:39:30.813Z,1011.34
2018-08-17T07:40:30.797Z,1011.31
2018-08-17T07:41:30.835Z,1011.29
2018-08-17T07:42:30.805Z,1011.25
2018-08-17T07:43:30.792Z,1011.21
2018-08-17T07:44:30.802Z,1011.15
2018-08-17T07:45:30.778Z,1011.11
2018-08-17T07:46:30.780Z,1011.09
2018-08-17T07:47:30.771Z,1011.06
2018-08-17T07:48:30.788Z,1011.05
2018-08-17T07:49:30.767Z,1011.05
2018-08-17T07:50:30.780Z,1011.06
2018-08-17T07:51:30.748Z,1011.10
2018-08-17T07:52:30.750Z,1011.06
2018-08-17T07:53:30.747Z,1011.02
2018-08-17T07:54:30.738Z,1010.99
2018-08-17T07:55:30.736Z,1010.90
2018-08-17T07:56:30.746Z,1010.78
2018-08-17T07:57:30.758Z,1010.69
2018-08-17T07:58:30.725Z,1010.70
2018-08-17T07:59:30.717Z,1010.73
2018-08-17T08:00:30.709Z,1010.74
2018-08-17T08:01:30.719Z,1010.87
2018-08-17T08:02:30.717Z,1010.95
2018-08-17T08:03:30.700Z,1010.90
2018-08-17T08:04:30.693Z,1010.92
2018-08-17T08:05:30.699Z,1010.92
2018-08-17T08:06:30.713Z,1010.92
2018-08-17T08:07:30.683Z,1010.92
2018-08-17T08:08:30.675Z,1010.84
2018-08-17T08:09:31.597Z,1010.84
2018-08-17T08:10:30.662Z,1010.78
2018-08-17T08:11:30.661Z,1010.77
2018-08-17T08:12:30.657Z,1010.79
2018-08-17T08:13:30.655Z,1010.80
2018-08-17T08:14:30.653Z,1010.77
2018-08-17T08:15:30.644Z,1010.80
2018-08-17T08:16:30.654Z,1010.78
2018-08-17T08:17:30.633Z,1010.75
2018-08-17T08:18:30.623Z,1010.75
2018-08-17T08:19:30.621Z,1010.76
2018-08-17T08:20:30.757Z,1010.76
2018-08-17T08:21:30.616Z,1010.77
2018-08-17T08:22:30.609Z,1010.79
2018-08-17T08:23:30.605Z,1010.81
2018-08-17T08:24:30.599Z,1010.83
2018-08-17T08:25:30.594Z,1010.81
2018-08-17T08:26:30.592Z,1010.83
2018-08-17T08:27:30.587Z,1010.85
2018-08-17T08:28:30.581Z,1010.85
2018-08-17T08:29:30.578Z,1010.89
2018-08-17T08:30:30.571Z,1010.92
2018-08-17T08:31:30.566Z,1010.95
2018-08-17T08:32:30.640Z,1011.03
2018-08-17T08:33:30.555Z,1011.07
2018-08-17T08:34:30.563Z,1011.08
2018-08-17T08:35:30.546Z,1011.09
2018-08-17T08:36:30.541Z,1011.12
2018-08-17T08:37:30.541Z,1011.14
2018-08-17T08:38:30.536Z,1011.08
2018-08-17T08:39:30.534Z,1011.08
2018-08-17T08:40:30.530Z,1011.08
2018-08-17T08:41:30.542Z,1011.12
2018-08-17T08:42:30.515Z,1011.15
2018-08-17T08:43:30.522Z,1011.16
2018-08-17T08:44:30.507Z,1011.15
2018-08-17T08:45:30.530Z,1011.14
2018-08-17T08:46:30.494Z,1011.20
2018-08-17T08:47:30.493Z,1011.17
2018-08-17T08:48:30.489Z,1011.20
2018-08-17T08:49:30.481Z,1011.19
2018-08-17T08:50:30.478Z,1011.24
2018-08-17T08:51:30.490Z,1011.31
2018-08-17T08:52:30.480Z,1011.27
2018-08-17T08:53:30.474Z,1011.32
2018-08-17T08:54:30.462Z,1011.31
2018-08-17T08:55:30.458Z,1011.29
2018-08-17T08:56:30.456Z,1011.27
2018-08-17T08:57:30.453Z,1011.27
2018-08-17T08:58:30.460Z,1011.26
2018-08-17T08:59:30.445Z,1011.24
2018-08-17T09:00:30.443Z,1011.25
2018-08-17T09:01:30.438Z,1011.27
2018-08-17T09:02:30.434Z,1011.31
2018-08-17T09:03:30.433Z,1011.32
2018-08-17T09:04:30.437Z,1011.33
2018-08-17T09:05:30.431Z,1011.34
2018-08-17T09:06:30.458Z,1011.33
2018-08-17T09:07:30.441Z,1011.32
2018-08-17T09:08:30.424Z,1011.38
2018-08-17T09:09:30.416Z,1011.33
2018-08-17T09:10:30.416Z,1011.33
2018-08-17T09:11:30.417Z,1011.38
2018-08-17T09:12:30.437Z,1011.41
2018-08-17T09:13:30.448Z,1011.48
2018-08-17T09:14:30.412Z,1011.51
2018-08-17T09:15:30.406Z,1011.52
2018-08-17T09:16:30.404Z,1011.51
2018-08-17T09:17:30.414Z,1011.47
2018-08-17T09:18:30.403Z,1011.41
2018-08-17T09:19:30.403Z,1011.40
2018-08-17T09:20:30.447Z,1011.44
2018-08-17T09:21:30.393Z,1011.44
2018-08-17T09:22:30.396Z,1011.45
2018-08-17T09:23:30.404Z,1011.50
2018-08-17T09:24:30.405Z,1011.49
2018-08-17T09:25:30.432Z,1011.51
2018-08-17T09:26:30.424Z,1011.54
2018-08-17T09:27:30.433Z,1011.53
2018-08-17T09:28:30.403Z,1011.53
2018-08-17T09:29:30.404Z,1011.56
2018-08-17T09:30:30.393Z,1011.55
2018-08-17T09:31:30.400Z,1011.56
2018-08-17T09:32:30.394Z,1011.51
2018-08-17T09:33:30.399Z,1011.55
2018-08-17T09:34:30.388Z,1011.57
2018-08-17T09:35:30.386Z,1011.54
2018-08-17T09:36:30.393Z,1011.55
2018-08-17T09:37:30.391Z,1011.56
2018-08-17T09:38:30.382Z,1011.59
2018-08-17T09:39:30.420Z,1011.64
2018-08-17T09:40:30.390Z,1011.67
2018-08-17T09:41:30.382Z,1011.61
2018-08-17T09:42:30.380Z,1011.62
2018-08-17T09:43:30.382Z,1011.58
2018-08-17T09:44:30.374Z,1011.57
2018-08-17T09:45:30.373Z,1011.61
2018-08-17T09:46:30.374Z,1011.58
2018-08-17T09:47:30.373Z,1011.57
2018-08-17T09:48:30.367Z,1011.59
2018-08-17T09:49:30.371Z,1011.62
2018-08-17T09:50:30.380Z,1011.62
2018-08-17T09:51:30.372Z,1011.62
2018-08-17T09:52:30.366Z,1011.67
2018-08-17T09:53:30.361Z,1011.64
2018-08-17T09:54:30.361Z,1011.65
2018-08-17T09:55:30.401Z,1011.60
2018-08-17T09:56:30.381Z,1011.66
2018-08-17T09:57:30.364Z,1011.61
2018-08-17T09:58:30.356Z,1011.64
2018-08-17T09:59:30.359Z,1011.61
2018-08-17T10:00:30.367Z,1011.60
2018-08-17T10:01:30.351Z,1011.60
2018-08-17T10:02:30.364Z,1011.66
2018-08-17T10:03:30.365Z,1011.66
2018-08-17T10:04:30.350Z,1011.65
2018-08-17T10:05:30.351Z,1011.68
2018-08-17T10:06:30.340Z,1011.72
2018-08-17T10:07:30.337Z,1011.71
2018-08-17T10:08:30.334Z,1011.68
2018-08-17T10:09:30.335Z,1011.72
2018-08-17T10:10:30.335Z,1011.70
2018-08-17T10:11:30.361Z,1011.73
2018-08-17T10:12:30.329Z,1011.69
2018-08-17T10:13:30.329Z,1011.69
2018-08-17T10:14:30.329Z,1011.71
2018-08-17T10:15:30.331Z,1011.75
2018-08-17T10:16:30.322Z,1011.71
2018-08-17T10:17:30.320Z,1011.75
2018-08-17T10:18:30.325Z,1011.78
2018-08-17T10:19:30.316Z,1011.76
2018-08-17T10:20:30.310Z,1011.73
2018-08-17T10:21:30.505Z,1011.79
2018-08-17T10:22:30.310Z,1011.76
2018-08-17T10:23:30.310Z,1011.80
2018-08-17T10:24:30.306Z,1011.80
2018-08-17T10:25:30.305Z,1011.83
2018-08-17T10:26:30.302Z,1011.77
2018-08-17T10:27:30.309Z,1011.79
2018-08-17T10:28:31.176Z,1011.78
2018-08-17T10:29:30.292Z,1011.79
2018-08-17T10:30:30.292Z,1011.80
2018-08-17T10:31:30.298Z,1011.78
2018-08-17T10:32:30.287Z,1011.81
2018-08-17T10:33:30.283Z,1011.78
2018-08-17T10:34:30.282Z,1011.79
2018-08-17T10:35:30.277Z,1011.79
2018-08-17T10:36:30.275Z,1011.78
2018-08-17T10:37:30.300Z,1011.79
2018-08-17T10:38:30.311Z,1011.80
2018-08-17T10:39:30.274Z,1011.82
2018-08-17T10:40:30.265Z,1011.81
2018-08-17T10:41:30.263Z,1011.76
2018-08-17T10:42:30.261Z,1011.82
2018-08-17T10:43:38.205Z,1011.81
2018-08-17T10:45:41.986Z,1011.83
2018-08-17T10:46:23.778Z,1011.88
2018-08-17T10:47:23.774Z,1011.89
2018-08-17T10:48:23.791Z,1011.87
2018-08-17T10:49:31.885Z,1011.89
2018-08-17T10:51:17.434Z,1011.85
2018-08-17T10:52:25.391Z,1011.82
2018-08-17T10:54:11.415Z,1011.81
2018-08-17T10:55:11.013Z,1011.85
2018-08-17T10:56:11.029Z,1011.90
2018-08-17T10:57:11.022Z,1011.86
2018-08-17T10:58:11.008Z,1011.89
2018-08-17T10:59:11.010Z,1011.87
2018-08-17T11:00:11.008Z,1011.89
2018-08-17T11:01:11.013Z,1011.85
2018-08-17T11:02:11.018Z,1011.84
2018-08-17T11:03:11.008Z,1011.85
2018-08-17T11:04:11.023Z,1011.81
2018-08-17T11:05:11.003Z,1011.81
2018-08-17T11:06:11.003Z,1011.77
2018-08-17T11:07:10.999Z,1011.81
2018-08-17T11:08:10.998Z,1011.86
2018-08-17T11:09:10.995Z,1011.83
2018-08-17T11:10:10.998Z,1011.83
2018-08-17T11:11:10.999Z,1011.87
2018-08-17T11:12:10.996Z,1011.86
2018-08-17T11:13:10.993Z,1011.87
2018-08-17T11:14:10.996Z,1011.89
2018-08-17T11:15:10.993Z,1011.85
2018-08-17T11:16:10.990Z,1011.87
2018-08-17T11:17:10.998Z,1011.91
2018-08-17T11:18:10.990Z,1011.90
2018-08-17T11:19:10.998Z,1011.92
2018-08-17T11:20:10.993Z,1011.91
2018-08-17T11:21:10.992Z,1011.91
2018-08-17T11:22:10.989Z,1011.91
2018-08-17T11:23:10.989Z,1011.92
2018-08-17T11:24:11.001Z,1011.92
2018-08-17T11:25:10.991Z,1011.91
2018-08-17T11:26:10.991Z,1011.95
2018-08-17T11:27:10.995Z,1011.95
2018-08-17T11:28:10.989Z,1011.98
2018-08-17T11:29:10.989Z,1011.97
2018-08-17T11:30:10.986Z,1011.94
2018-08-17T11:31:10.988Z,1011.99
2018-08-17T11:32:11.013Z,1011.99
2018-08-17T11:33:11.000Z,1011.98
2018-08-17T11:34:11.035Z,1012.02
2018-08-17T11:35:11.009Z,1012.02
2018-08-17T11:36:10.977Z,1012.07
2018-08-17T11:37:10.984Z,1012.04
2018-08-17T11:38:10.985Z,1012.05
2018-08-17T11:39:10.987Z,1012.06
2018-08-17T11:40:10.976Z,1012.08
2018-08-17T11:41:10.980Z,1012.10
2018-08-17T11:42:10.976Z,1012.05
2018-08-17T11:43:10.976Z,1012.11
2018-08-17T11:44:10.970Z,1012.06
2018-08-17T11:45:10.974Z,1012.06
2018-08-17T11:46:10.977Z,1012.09
2018-08-17T11:47:10.970Z,1012.05
2018-08-17T11:48:10.983Z,1012.07
2018-08-17T11:49:10.967Z,1012.06
2018-08-17T11:50:10.962Z,1012.09
2018-08-17T11:51:10.968Z,1012.12
2018-08-17T11:52:10.967Z,1012.15
2018-08-17T11:53:10.964Z,1012.15
2018-08-17T11:54:10.964Z,1012.16
2018-08-17T11:55:10.967Z,1012.18
2018-08-17T11:56:10.973Z,1012.22
2018-08-17T11:57:11.886Z,1012.23
2018-08-17T11:58:10.962Z,1012.18
2018-08-17T11:59:10.988Z,1012.20
2018-08-17T12:00:10.989Z,1012.21
2018-08-17T12:01:11.043Z,1012.16
2018-08-17T12:02:11.012Z,1012.21
2018-08-17T12:03:10.983Z,1012.22
2018-08-17T12:04:10.965Z,1012.22
2018-08-17T12:05:10.967Z,1012.16
2018-08-17T12:06:10.969Z,1012.22
2018-08-17T12:07:10.963Z,1012.19
2018-08-17T12:08:10.994Z,1012.17
2018-08-17T12:09:10.980Z,1012.22
2018-08-17T12:10:10.967Z,1012.17